Time;durP1;ratioP1;P1;durP2;ratioP2;P2;SDS_P1;SDS_P2;PMS_P1;PMS_P2;Temp;Humidity;BMP_temperature;BMP_pressure;BME280_temperature;BME280_humidity;BME280_pressure;Samples;Min_cycle;Max_cycle;Signal;HPM_P1;HPM_P2
2024/01/10 00:00:08;;;;;;;6.75;3.03;;;;;;;;;;5095296;28;20103;-27
2024/01/10 00:02:34;;;;;;;8.95;3.50;;;;;;;;;;5095960;28;20024;-27
2024/01/10 00:04:59;;;;;;;6.80;3.05;;;;;;;;;;5095897;28;20471;-27
2024/01/10 00:07:24;;;;;;;6.35;2.78;;;;;;;;;;5095854;28;20046;-28
2024/01/10 00:09:49;;;;;;;8.73;3.50;;;;;;;;;;5096448;28;20028;-27
2024/01/10 00:12:15;;;;;;;6.13;3.08;;;;;;;;;;5095663;28;20469;-28
2024/01/10 00:14:40;;;;;;;5.82;3.03;;;;;;;;;;5096343;28;20024;-27
2024/01/10 00:17:05;;;;;;;6.40;3.13;;;;;;;;;;5095936;28;20020;-27
2024/01/10 00:19:30;;;;;;;8.95;3.50;;;;;;;;;;5095671;28;20024;-28
2024/01/10 00:21:55;;;;;;;7.00;3.28;;;;;;;;;;5095610;28;20028;-27
2024/01/10 00:24:20;;;;;;;8.32;3.40;;;;;;;;;;5095846;28;20085;-28
2024/01/10 00:26:46;;;;;;;6.88;3.08;;;;;;;;;;5096118;28;20040;-27
2024/01/10 00:29:11;;;;;;;7.25;3.42;;;;;;;;;;5095766;28;20528;-27
2024/01/10 00:31:36;;;;;;;7.90;3.10;;;;;;;;;;5095344;28;20524;-27
2024/01/10 00:34:01;;;;;;;7.35;3.42;;;;;;;;;;5095397;28;20463;-28
2024/01/10 00:36:26;;;;;;;6.75;3.40;;;;;;;;;;5095525;28;20043;-28
2024/01/10 00:38:52;;;;;;;6.40;2.97;;;;;;;;;;5095848;28;20012;-27
2024/01/10 00:41:17;;;;;;;6.70;3.08;;;;;;;;;;5095768;28;20031;-27
2024/01/10 00:43:42;;;;;;;7.63;3.55;;;;;;;;;;5095235;28;20031;-27
2024/01/10 00:46:07;;;;;;;8.45;3.72;;;;;;;;;;5095405;28;20048;-27
2024/01/10 00:48:33;;;;;;;6.45;3.20;;;;;;;;;;5095323;28;20428;-27
2024/01/10 00:50:59;;;;;;;6.78;3.42;;;;;;;;;;5095385;28;20518;-27
2024/01/10 00:53:24;;;;;;;8.73;3.78;;;;;;;;;;5094935;28;20150;-27
2024/01/10 00:55:49;;;;;;;7.53;3.42;;;;;;;;;;5095234;28;20149;-27
2024/01/10 00:58:14;;;;;;;7.88;3.70;;;;;;;;;;5095220;28;20016;-27
2024/01/10 01:00:39;;;;;;;6.35;3.22;;;;;;;;;;5095075;28;20016;-28
2024/01/10 01:03:05;;;;;;;7.00;3.55;;;;;;;;;;5094692;28;20530;-28
2024/01/10 01:05:31;;;;;;;5.72;3.00;;;;;;;;;;5094843;28;20032;-27
2024/01/10 01:07:56;;;;;;;6.35;3.28;;;;;;;;;;5094988;28;20035;-28
2024/01/10 01:10:21;;;;;;;6.93;3.50;;;;;;;;;;5094980;28;20451;-27
2024/01/10 01:12:46;;;;;;;8.13;4.05;;;;;;;;;;5094333;28;20024;-27
2024/01/10 01:15:11;;;;;;;8.27;4.03;;;;;;;;;;5094797;28;20043;-27
2024/01/10 01:17:37;;;;;;;10.77;4.57;;;;;;;;;;5094514;28;20016;-27
2024/01/10 01:20:04;;;;;;;6.93;3.92;;;;;;;;;;5094750;28;20073;-27
2024/01/10 01:22:30;;;;;;;10.73;3.72;;;;;;;;;;5076260;28;20153;-27
2024/01/10 01:24:56;;;;;;;8.52;4.38;;;;;;;;;;5095426;28;20171;-27
2024/01/10 01:27:21;;;;;;;8.77;4.50;;;;;;;;;;5094308;28;20012;-28
2024/01/10 01:29:46;;;;;;;8.43;4.10;;;;;;;;;;5094861;28;20035;-27
2024/01/10 01:32:11;;;;;;;9.68;4.57;;;;;;;;;;5094162;28;20103;-27
2024/01/10 01:34:36;;;;;;;8.50;4.47;;;;;;;;;;5093979;28;20049;-27
2024/01/10 01:37:01;;;;;;;7.53;4.20;;;;;;;;;;5094097;28;20178;-27
2024/01/10 01:39:27;;;;;;;8.55;4.47;;;;;;;;;;5094056;28;20020;-27
2024/01/10 01:41:52;;;;;;;9.32;4.55;;;;;;;;;;5094028;28;20051;-27
2024/01/10 01:44:18;;;;;;;8.77;4.45;;;;;;;;;;5094292;28;20130;-27
2024/01/10 01:46:43;;;;;;;7.40;3.72;;;;;;;;;;5094196;28;20059;-27
2024/01/10 01:49:09;;;;;;;7.72;4.43;;;;;;;;;;5094002;28;20093;-27
2024/01/10 01:51:36;;;;;;;9.98;4.60;;;;;;;;;;5093904;28;20024;-27
2024/01/10 01:54:02;;;;;;;10.45;5.10;;;;;;;;;;5093885;28;20016;-27
2024/01/10 01:56:27;;;;;;;8.65;4.32;;;;;;;;;;5093855;28;20096;-27
2024/01/10 01:58:53;;;;;;;10.07;4.85;;;;;;;;;;5093849;28;20434;-27
2024/01/10 02:01:21;;;;;;;8.38;4.60;;;;;;;;;;5093598;28;20050;-27
2024/01/10 02:03:47;;;;;;;8.20;4.40;;;;;;;;;;5093721;28;20040;-27
2024/01/10 02:06:12;;;;;;;9.00;3.88;;;;;;;;;;5094207;28;20367;-27
2024/01/10 02:08:37;;;;;;;9.88;4.78;;;;;;;;;;5093697;28;20375;-28
2024/01/10 02:11:03;;;;;;;7.72;4.25;;;;;;;;;;5094153;28;20028;-28
2024/01/10 02:13:28;;;;;;;10.27;4.78;;;;;;;;;;5093820;28;20035;-27
2024/01/10 02:15:54;;;;;;;9.60;4.57;;;;;;;;;;5093766;28;20016;-27
2024/01/10 02:18:19;;;;;;;9.98;4.72;;;;;;;;;;5093539;28;20368;-27
2024/01/10 02:20:45;;;;;;;8.50;4.47;;;;;;;;;;5094325;28;20104;-27
2024/01/10 02:23:10;;;;;;;8.23;4.60;;;;;;;;;;5092774;28;20024;-28
2024/01/10 02:25:36;;;;;;;9.60;5.10;;;;;;;;;;5093437;28;20016;-27
2024/01/10 02:28:01;;;;;;;12.98;5.07;;;;;;;;;;5093494;28;20020;-28
2024/01/10 02:30:26;;;;;;;9.05;4.68;;;;;;;;;;5093870;28;20020;-27
2024/01/10 02:32:51;;;;;;;11.57;4.97;;;;;;;;;;5093633;28;20024;-28
2024/01/10 02:35:16;;;;;;;10.93;4.95;;;;;;;;;;5093608;28;20008;-27
2024/01/10 02:37:42;;;;;;;9.85;4.78;;;;;;;;;;5093368;28;20153;-27
2024/01/10 02:40:07;;;;;;;13.07;4.78;;;;;;;;;;5093885;28;20073;-27
2024/01/10 02:42:33;;;;;;;9.55;4.50;;;;;;;;;;5093179;28;20467;-27
2024/01/10 02:44:58;;;;;;;10.27;4.93;;;;;;;;;;5093765;28;20020;-28
2024/01/10 02:47:23;;;;;;;9.77;5.05;;;;;;;;;;5093870;28;20008;-27
2024/01/10 02:49:48;;;;;;;11.18;4.25;;;;;;;;;;5093245;28;20039;-27
2024/01/10 02:52:14;;;;;;;10.15;5.07;;;;;;;;;;5093074;28;20074;-28
2024/01/10 02:54:39;;;;;;;12.90;5.82;;;;;;;;;;5093147;28;20016;-28
2024/01/10 02:57:04;;;;;;;10.25;5.38;;;;;;;;;;5093436;28;20012;-28
2024/01/10 02:59:29;;;;;;;10.75;5.22;;;;;;;;;;5093170;28;20028;-29
2024/01/10 03:01:54;;;;;;;10.35;5.45;;;;;;;;;;5093670;28;20133;-27
2024/01/10 03:04:19;;;;;;;11.05;5.10;;;;;;;;;;5092962;28;20044;-27
2024/01/10 03:06:45;;;;;;;10.93;5.28;;;;;;;;;;5093612;28;20027;-27
2024/01/10 03:09:10;;;;;;;9.52;4.93;;;;;;;;;;5093081;28;20020;-28
2024/01/10 03:11:36;;;;;;;11.07;5.60;;;;;;;;;;5093090;28;20027;-27
2024/01/10 03:14:02;;;;;;;10.00;5.25;;;;;;;;;;5093235;28;20020;-27
2024/01/10 03:16:27;;;;;;;8.05;4.50;;;;;;;;;;5092876;28;20020;-27
2024/01/10 03:18:52;;;;;;;8.80;4.85;;;;;;;;;;5093458;28;20089;-27
2024/01/10 03:21:24;;;;;;;9.88;5.35;;;;;;;;;;5092836;28;20471;-26
2024/01/10 03:23:50;;;;;;;12.60;5.15;;;;;;;;;;5092959;28;20020;-27
2024/01/10 03:26:15;;;;;;;10.25;5.35;;;;;;;;;;5093460;28;20012;-27
2024/01/10 03:28:40;;;;;;;9.57;5.03;;;;;;;;;;5074791;28;20059;-27
2024/01/10 03:31:05;;;;;;;11.57;5.78;;;;;;;;;;5093369;28;20031;-27
2024/01/10 03:33:30;;;;;;;10.37;4.40;;;;;;;;;;5092789;28;20469;-28
2024/01/10 03:35:55;;;;;;;12.88;4.97;;;;;;;;;;5096187;28;20251;-27
2024/01/10 03:38:21;;;;;;;13.60;4.50;;;;;;;;;;5096511;28;20105;-27
2024/01/10 03:40:46;;;;;;;11.75;4.18;;;;;;;;;;5096928;28;20064;-27
2024/01/10 03:43:12;;;;;;;9.65;4.93;;;;;;;;;;5096900;28;20024;-27
2024/01/10 03:45:37;;;;;;;13.85;4.07;;;;;;;;;;5096559;28;20367;-26
2024/01/10 03:48:02;;;;;;;9.05;4.20;;;;;;;;;;5096212;28;20104;-25
2024/01/10 03:50:27;;;;;;;11.77;4.50;;;;;;;;;;5096649;28;20031;-25
2024/01/10 03:52:53;;;;;;;10.32;4.35;;;;;;;;;;5096070;28;20059;-28
2024/01/10 03:55:18;;;;;;;10.55;4.85;;;;;;;;;;5096160;28;20379;-28
2024/01/10 03:57:43;;;;;;;13.10;4.03;;;;;;;;;;5096438;28;20024;-26
2024/01/10 04:00:09;;;;;;;7.80;3.80;;;;;;;;;;5095955;28;20018;-26
2024/01/10 04:02:36;;;;;;;8.02;3.67;;;;;;;;;;5095843;28;20020;-26
2024/01/10 04:05:01;;;;;;;9.38;4.43;;;;;;;;;;5095721;28;20086;-26
2024/01/10 04:07:27;;;;;;;9.27;4.57;;;;;;;;;;5096095;28;20451;-26
2024/01/10 04:09:52;;;;;;;9.60;4.20;;;;;;;;;;5095765;28;20093;-26
2024/01/10 04:12:17;;;;;;;9.55;4.60;;;;;;;;;;5096059;28;20125;-26
2024/01/10 04:14:42;;;;;;;9.82;4.47;;;;;;;;;;5095760;28;20016;-26
2024/01/10 04:17:09;;;;;;;9.23;4.50;;;;;;;;;;5096229;28;20020;-26
2024/01/10 04:19:34;;;;;;;10.48;4.60;;;;;;;;;;5095951;28;20417;-26
2024/01/10 04:21:59;;;;;;;8.55;4.55;;;;;;;;;;5095651;28;20024;-26
2024/01/10 04:24:24;;;;;;;8.57;4.57;;;;;;;;;;5095893;28;20024;-26
2024/01/10 04:26:50;;;;;;;9.85;5.13;;;;;;;;;;5095863;28;20028;-26
2024/01/10 04:29:15;;;;;;;10.32;5.18;;;;;;;;;;5095440;28;20535;-34
2024/01/10 04:31:40;;;;;;;11.82;5.65;;;;;;;;;;5095736;28;20016;-26
2024/01/10 04:34:05;;;;;;;10.82;5.63;;;;;;;;;;5095614;28;20019;-27
2024/01/10 04:36:31;;;;;;;9.80;5.25;;;;;;;;;;5095422;28;20462;-26
2024/01/10 04:38:56;;;;;;;13.07;5.43;;;;;;;;;;5095592;28;20066;-26
2024/01/10 04:41:22;;;;;;;9.95;5.28;;;;;;;;;;5095204;28;20008;-27
2024/01/10 04:43:47;;;;;;;11.02;5.63;;;;;;;;;;5095721;28;20027;-26
2024/01/10 04:46:12;;;;;;;10.27;5.20;;;;;;;;;;5095002;28;20099;-26
2024/01/10 04:48:37;;;;;;;13.13;6.03;;;;;;;;;;5095417;28;20254;-26
2024/01/10 04:51:03;;;;;;;10.68;5.57;;;;;;;;;;5095464;28;20020;-26
2024/01/10 04:53:28;;;;;;;10.63;5.57;;;;;;;;;;5095215;28;20047;-26
2024/01/10 04:55:53;;;;;;;13.55;5.30;;;;;;;;;;5095506;28;20095;-26
2024/01/10 04:58:18;;;;;;;10.00;4.97;;;;;;;;;;5094953;28;20016;-26
2024/01/10 05:00:44;;;;;;;11.87;5.57;;;;;;;;;;5094911;28;20018;-27
2024/01/10 05:03:09;;;;;;;11.98;5.60;;;;;;;;;;5095203;28;20301;-26
2024/01/10 05:05:34;;;;;;;11.38;5.93;;;;;;;;;;5095373;28;20112;-27
2024/01/10 05:08:01;;;;;;;9.82;5.40;;;;;;;;;;5095311;28;20085;-26
2024/01/10 05:10:26;;;;;;;9.85;4.95;;;;;;;;;;5094984;28;20024;-26
2024/01/10 05:12:51;;;;;;;10.50;5.10;;;;;;;;;;5094557;28;20022;-27
2024/01/10 05:15:16;;;;;;;10.90;5.78;;;;;;;;;;5094854;28;20258;-26
2024/01/10 05:17:42;;;;;;;9.82;5.38;;;;;;;;;;5094890;28;20059;-26
2024/01/10 05:20:08;;;;;;;10.73;5.40;;;;;;;;;;5094764;28;20016;-26
2024/01/10 05:22:33;;;;;;;12.65;5.32;;;;;;;;;;5094407;28;20169;-26
2024/01/10 05:24:58;;;;;;;10.75;5.55;;;;;;;;;;5093123;28;20028;-27
2024/01/10 05:27:24;;;;;;;11.30;5.33;;;;;;;;;;5094311;28;20387;-27
2024/01/10 05:29:49;;;;;;;15.07;5.27;;;;;;;;;;5094838;28;20412;-26
2024/01/10 05:32:14;;;;;;;10.27;5.43;;;;;;;;;;5094746;28;20277;-26
2024/01/10 05:34:39;;;;;;;10.45;5.40;;;;;;;;;;5094281;28;20438;-26
2024/01/10 05:37:04;;;;;;;10.57;5.57;;;;;;;;;;5094220;28;20012;-26
2024/01/10 05:39:29;;;;;;;9.45;5.43;;;;;;;;;;5094176;28;20043;-26
2024/01/10 05:41:55;;;;;;;11.02;5.18;;;;;;;;;;5094033;28;20107;-26
2024/01/10 05:44:20;;;;;;;10.27;4.60;;;;;;;;;;5094621;28;20106;-26
2024/01/10 05:46:45;;;;;;;12.23;4.93;;;;;;;;;;5093986;28;20016;-26
2024/01/10 05:49:10;;;;;;;10.45;5.10;;;;;;;;;;5094275;28;20027;-26
2024/01/10 05:51:37;;;;;;;9.75;4.90;;;;;;;;;;5075691;28;20482;-26
2024/01/10 05:54:04;;;;;;;12.02;5.15;;;;;;;;;;5094167;28;20455;-27
2024/01/10 05:56:29;;;;;;;10.75;5.43;;;;;;;;;;5093861;28;20460;-26
2024/01/10 05:58:54;;;;;;;12.15;5.65;;;;;;;;;;5093103;28;20051;-26
2024/01/10 06:01:20;;;;;;;6.75;3.72;;;;;;;;;;5094340;28;20012;-26
2024/01/10 06:03:45;;;;;;;9.88;4.55;;;;;;;;;;5093765;28;20426;-26
2024/01/10 06:06:10;;;;;;;13.60;5.28;;;;;;;;;;5094326;28;20016;-26
2024/01/10 06:08:35;;;;;;;11.38;5.10;;;;;;;;;;5093986;28;20370;-26
2024/01/10 06:11:02;;;;;;;11.02;5.25;;;;;;;;;;5094101;28;20058;-26
2024/01/10 06:13:28;;;;;;;12.43;4.70;;;;;;;;;;5093871;28;20022;-27
2024/01/10 06:15:53;;;;;;;10.35;5.25;;;;;;;;;;5093812;28;20016;-26
2024/01/10 06:18:19;;;;;;;13.50;5.72;;;;;;;;;;5093576;28;20008;-26
2024/01/10 06:20:44;;;;;;;11.77;4.97;;;;;;;;;;5093748;28;20021;-26
2024/01/10 06:23:09;;;;;;;11.18;5.47;;;;;;;;;;5093483;28;20435;-26
2024/01/10 06:25:35;;;;;;;9.70;4.80;;;;;;;;;;5093738;28;20167;-27
2024/01/10 06:28:00;;;;;;;9.63;4.93;;;;;;;;;;5093392;28;20381;-26
2024/01/10 06:30:25;;;;;;;12.25;5.43;;;;;;;;;;5093979;28;20285;-27
2024/01/10 06:32:50;;;;;;;11.05;4.93;;;;;;;;;;5093380;28;20016;-27
2024/01/10 06:35:15;;;;;;;11.82;5.50;;;;;;;;;;5093963;28;20019;-27
2024/01/10 06:37:40;;;;;;;10.18;5.13;;;;;;;;;;5093232;28;20091;-26
2024/01/10 06:40:06;;;;;;;10.95;5.32;;;;;;;;;;5093331;28;20012;-27
2024/01/10 06:42:31;;;;;;;10.27;5.47;;;;;;;;;;5093229;28;20104;-27
2024/01/10 06:44:56;;;;;;;9.77;4.85;;;;;;;;;;5093568;28;20040;-27
2024/01/10 06:47:21;;;;;;;11.45;5.20;;;;;;;;;;5093562;28;20028;-26
2024/01/10 06:49:47;;;;;;;10.47;5.13;;;;;;;;;;5093793;28;20027;-26
2024/01/10 06:52:12;;;;;;;11.50;4.90;;;;;;;;;;5093101;28;20799;-27
2024/01/10 06:54:37;;;;;;;10.77;5.25;;;;;;;;;;5093173;28;20016;-26
2024/01/10 06:57:02;;;;;;;13.40;5.07;;;;;;;;;;5093353;28;20028;-27
2024/01/10 06:59:27;;;;;;;8.95;4.65;;;;;;;;;;5093472;28;20073;-26
2024/01/10 07:01:53;;;;;;;11.25;5.30;;;;;;;;;;5093404;28;20451;-26
2024/01/10 07:04:18;;;;;;;10.98;5.28;;;;;;;;;;5093221;28;20059;-26
2024/01/10 07:06:44;;;;;;;11.02;5.28;;;;;;;;;;5093023;28;20021;-26
2024/01/10 07:09:10;;;;;;;11.48;5.53;;;;;;;;;;5093470;28;20020;-28
2024/01/10 07:11:35;;;;;;;10.45;5.03;;;;;;;;;;5096924;28;20456;-26
2024/01/10 07:14:00;;;;;;;9.27;4.63;;;;;;;;;;5097501;28;20015;-26
2024/01/10 07:16:26;;;;;;;10.50;5.10;;;;;;;;;;5096920;28;20016;-27
2024/01/10 07:18:51;;;;;;;10.15;4.57;;;;;;;;;;5097010;28;20008;-26
2024/01/10 07:21:17;;;;;;;8.88;4.80;;;;;;;;;;5097095;28;20031;-27
2024/01/10 07:23:43;;;;;;;11.07;5.03;;;;;;;;;;5078534;28;20024;-26
2024/01/10 07:26:08;;;;;;;11.30;5.07;;;;;;;;;;5096614;28;20045;-26
2024/01/10 07:28:33;;;;;;;11.63;5.13;;;;;;;;;;5096637;28;20059;-26
2024/01/10 07:31:02;;;;;;;11.90;5.28;;;;;;;;;;5096565;28;20174;-26
2024/01/10 07:33:27;;;;;;;9.15;4.80;;;;;;;;;;5096790;28;20294;-26
2024/01/10 07:35:52;;;;;;;8.70;4.93;;;;;;;;;;5096812;28;20487;-26
2024/01/10 07:38:18;;;;;;;10.65;4.40;;;;;;;;;;5097050;28;20016;-27
2024/01/10 07:40:43;;;;;;;10.35;4.63;;;;;;;;;;5096395;28;20356;-26
2024/01/10 07:43:11;;;;;;;10.73;4.80;;;;;;;;;;5096907;28;20027;-26
2024/01/10 07:45:36;;;;;;;8.88;4.45;;;;;;;;;;5096316;28;20258;-26
2024/01/10 07:48:01;;;;;;;8.67;4.33;;;;;;;;;;5096357;28;20076;-26
2024/01/10 07:50:27;;;;;;;11.88;4.47;;;;;;;;;;5096246;28;20258;-26
2024/01/10 07:52:53;;;;;;;9.15;4.28;;;;;;;;;;5096428;28;20020;-28
2024/01/10 07:55:18;;;;;;;9.40;4.53;;;;;;;;;;5096199;28;20371;-26
2024/01/10 07:57:43;;;;;;;13.38;4.90;;;;;;;;;;5096129;28;20356;-26
2024/01/10 08:00:13;;;;;;;12.40;4.50;;;;;;;;;;5096245;28;20087;-26
2024/01/10 08:02:38;;;;;;;12.77;4.55;;;;;;;;;;5095998;28;20024;-27
2024/01/10 08:05:08;;;;;;;8.20;4.38;;;;;;;;;;5095926;28;20101;-26
2024/01/10 08:07:33;;;;;;;9.27;4.65;;;;;;;;;;5096487;28;20115;-26
2024/01/10 08:09:59;;;;;;;11.73;4.53;;;;;;;;;;5096206;28;20039;-26
2024/01/10 08:12:24;;;;;;;10.82;3.97;;;;;;;;;;5095699;28;20020;-26
2024/01/10 08:14:50;;;;;;;8.32;4.15;;;;;;;;;;5096108;28;20020;-27
2024/01/10 08:17:15;;;;;;;7.28;3.83;;;;;;;;;;5096045;28;20018;-26
2024/01/10 08:19:42;;;;;;;9.68;4.72;;;;;;;;;;5095829;28;20374;-27
2024/01/10 08:22:07;;;;;;;9.05;3.90;;;;;;;;;;5094595;28;20458;-26
2024/01/10 08:24:33;;;;;;;8.55;4.47;;;;;;;;;;5095955;28;20073;-27
2024/01/10 08:26:58;;;;;;;7.85;4.18;;;;;;;;;;5095662;28;20023;-27
2024/01/10 08:29:26;;;;;;;8.25;4.00;;;;;;;;;;5096038;28;20102;-26
2024/01/10 08:31:51;;;;;;;7.55;4.13;;;;;;;;;;5095723;28;20024;-26
2024/01/10 08:34:18;;;;;;;8.95;4.00;;;;;;;;;;5095418;28;20091;-27
2024/01/10 08:36:43;;;;;;;10.60;4.43;;;;;;;;;;5095615;28;20028;-26
2024/01/10 08:39:10;;;;;;;9.27;4.43;;;;;;;;;;5095926;28;20099;-26
2024/01/10 08:41:36;;;;;;;8.23;4.28;;;;;;;;;;5095335;28;20238;-26
2024/01/10 08:44:02;;;;;;;7.60;3.78;;;;;;;;;;5077113;28;20429;-26
2024/01/10 08:46:27;;;;;;;8.52;3.88;;;;;;;;;;5095535;28;20033;-26
2024/01/10 08:48:53;;;;;;;9.02;4.53;;;;;;;;;;5095685;28;20081;-27
2024/01/10 08:51:18;;;;;;;9.10;4.40;;;;;;;;;;5094924;28;20435;-27
2024/01/10 08:53:43;;;;;;;8.65;4.40;;;;;;;;;;5095114;28;20070;-26
2024/01/10 08:56:09;;;;;;;9.30;4.30;;;;;;;;;;5094910;28;20375;-26
2024/01/10 08:58:35;;;;;;;9.10;4.32;;;;;;;;;;5095218;28;20028;-27
2024/01/10 09:01:00;;;;;;;12.05;4.28;;;;;;;;;;5095245;28;20069;-27
2024/01/10 09:03:25;;;;;;;8.83;4.33;;;;;;;;;;5095273;28;20099;-27
2024/01/10 09:05:50;;;;;;;9.35;4.13;;;;;;;;;;5095070;28;20598;-27
2024/01/10 09:08:15;;;;;;;10.93;4.40;;;;;;;;;;5094771;28;20050;-27
2024/01/10 09:10:41;;;;;;;8.37;4.23;;;;;;;;;;5094805;28;20024;-27
2024/01/10 09:13:06;;;;;;;7.82;3.55;;;;;;;;;;5094484;28;20278;-27
2024/01/10 09:15:31;;;;;;;7.32;3.70;;;;;;;;;;5094875;28;20020;-27
2024/01/10 09:17:56;;;;;;;9.32;4.47;;;;;;;;;;5094810;28;20312;-27
2024/01/10 09:20:21;;;;;;;7.55;3.88;;;;;;;;;;5094546;28;20451;-27
2024/01/10 09:22:47;;;;;;;12.05;4.35;;;;;;;;;;5094828;28;20059;-27
2024/01/10 09:25:13;;;;;;;9.63;4.10;;;;;;;;;;5094700;28;20069;-27
2024/01/10 09:27:40;;;;;;;8.48;4.30;;;;;;;;;;5094492;28;20455;-27
2024/01/10 09:30:08;;;;;;;7.38;3.63;;;;;;;;;;5094630;28;20050;-27
2024/01/10 09:32:33;;;;;;;8.52;4.20;;;;;;;;;;5094236;28;20398;-27
2024/01/10 09:34:59;;;;;;;12.68;4.28;;;;;;;;;;5076163;28;20008;-27
2024/01/10 09:37:24;;;;;;;8.07;4.10;;;;;;;;;;5075995;28;20012;-27
2024/01/10 09:39:49;;;;;;;10.43;4.50;;;;;;;;;;5094259;28;20039;-27
2024/01/10 09:42:14;;;;;;;7.95;4.05;;;;;;;;;;5094115;28;20258;-27
2024/01/10 09:44:40;;;;;;;8.77;4.68;;;;;;;;;;5094394;28;20016;-26
2024/01/10 09:47:05;;;;;;;9.43;4.35;;;;;;;;;;5094082;28;20016;-27
2024/01/10 09:49:31;;;;;;;14.88;4.68;;;;;;;;;;5094338;28;20024;-27
2024/01/10 09:52:00;;;;;;;7.97;4.05;;;;;;;;;;5093905;28;20103;-27
2024/01/10 09:54:25;;;;;;;8.85;4.47;;;;;;;;;;5093900;28;20470;-27
2024/01/10 09:56:51;;;;;;;10.57;4.50;;;;;;;;;;5093941;28;20078;-27
2024/01/10 09:59:16;;;;;;;10.68;4.40;;;;;;;;;;5093916;28;20024;-27
2024/01/10 10:01:42;;;;;;;9.80;4.43;;;;;;;;;;5093842;28;20016;-27
2024/01/10 10:04:09;;;;;;;9.20;4.20;;;;;;;;;;5093826;28;20036;-27
2024/01/10 10:06:34;;;;;;;9.60;4.15;;;;;;;;;;5094371;28;20016;-27
2024/01/10 10:08:59;;;;;;;11.15;4.43;;;;;;;;;;5093666;28;20054;-27
2024/01/10 10:11:25;;;;;;;11.45;4.60;;;;;;;;;;5093839;28;20061;-27
2024/01/10 10:13:50;;;;;;;10.85;4.10;;;;;;;;;;5093839;28;20024;-27
2024/01/10 10:16:22;;;;;;;10.85;4.57;;;;;;;;;;5093885;28;20008;-27
2024/01/10 10:18:49;;;;;;;9.95;5.10;;;;;;;;;;5093668;28;20016;-27
2024/01/10 10:21:15;;;;;;;10.65;4.90;;;;;;;;;;5093588;28;20024;-28
2024/01/10 10:23:41;;;;;;;8.75;5.20;;;;;;;;;;5093555;28;20019;-27
2024/01/10 10:26:19;;;;;;;10.60;5.78;;;;;;;;;;5093892;28;20020;-28
2024/01/10 10:28:44;;;;;;;9.05;5.70;;;;;;;;;;5093745;28;20028;-28
2024/01/10 10:31:09;;;;;;;8.88;5.85;;;;;;;;;;5093797;28;20027;-28
2024/01/10 10:33:35;;;;;;;8.80;5.53;;;;;;;;;;5093940;28;20030;-28
2024/01/10 10:36:01;;;;;;;8.45;5.25;;;;;;;;;;5093455;28;20094;-28
2024/01/10 10:38:26;;;;;;;9.38;5.80;;;;;;;;;;5093332;28;20374;-28
2024/01/10 10:40:51;;;;;;;9.57;5.60;;;;;;;;;;5093391;28;20062;-28
2024/01/10 10:43:18;;;;;;;11.33;5.77;;;;;;;;;;5075332;28;20012;-28
2024/01/10 10:45:46;;;;;;;7.97;5.32;;;;;;;;;;5096211;28;20501;-28
2024/01/10 10:48:13;;;;;;;9.02;4.93;;;;;;;;;;5097542;28;20221;-28
2024/01/10 10:50:38;;;;;;;8.27;5.30;;;;;;;;;;5097760;28;20031;-28
2024/01/10 10:53:03;;;;;;;8.37;5.20;;;;;;;;;;5097338;28;20016;-29
2024/01/10 10:55:29;;;;;;;10.10;5.43;;;;;;;;;;5097728;28;20038;-28
2024/01/10 10:57:55;;;;;;;9.10;5.28;;;;;;;;;;5097312;28;20097;-28
2024/01/10 11:00:21;;;;;;;9.25;5.60;;;;;;;;;;5097335;28;20012;-28
2024/01/10 11:02:47;;;;;;;9.77;5.40;;;;;;;;;;5097550;28;20032;-28
2024/01/10 11:05:12;;;;;;;9.15;5.22;;;;;;;;;;5097188;28;20442;-28
2024/01/10 11:07:38;;;;;;;9.27;5.45;;;;;;;;;;5097099;28;20024;-28
2024/01/10 11:10:06;;;;;;;7.97;5.45;;;;;;;;;;5097471;28;20020;-28
2024/01/10 11:12:55;;;;;;;9.48;5.55;;;;;;;;;;5097312;28;20073;-28
2024/01/10 11:15:41;;;;;;;8.88;6.15;;;;;;;;;;5097208;28;20016;-28
2024/01/10 11:18:21;;;;;;;9.20;5.60;;;;;;;;;;5079120;28;20089;-29
2024/01/10 11:20:56;;;;;;;9.18;5.70;;;;;;;;;;5096935;28;20017;-27
2024/01/10 11:23:40;;;;;;;10.00;6.13;;;;;;;;;;5096892;28;20035;-27
2024/01/10 11:26:06;;;;;;;11.13;6.32;;;;;;;;;;5096852;28;20016;-27
2024/01/10 11:28:31;;;;;;;11.75;5.93;;;;;;;;;;5097375;28;20040;-27
2024/01/10 11:30:58;;;;;;;10.27;5.35;;;;;;;;;;5096702;28;20510;-27
2024/01/10 11:33:33;;;;;;;9.95;5.65;;;;;;;;;;5096793;28;20028;-28
2024/01/10 11:36:18;;;;;;;9.43;5.38;;;;;;;;;;5096896;28;20024;-27
2024/01/10 11:38:53;;;;;;;9.40;5.28;;;;;;;;;;5096799;28;20524;-27
2024/01/10 11:41:25;;;;;;;11.40;5.28;;;;;;;;;;5096788;28;20023;-27
2024/01/10 11:44:09;;;;;;;10.98;5.47;;;;;;;;;;5096668;28;20020;-27
2024/01/10 11:46:35;;;;;;;10.05;4.80;;;;;;;;;;5096456;28;20048;-27
2024/01/10 11:49:00;;;;;;;14.95;5.53;;;;;;;;;;5096441;28;20028;-27
2024/01/10 11:51:25;;;;;;;10.27;5.32;;;;;;;;;;5096618;28;20027;-27
2024/01/10 11:53:52;;;;;;;9.35;5.22;;;;;;;;;;5096762;28;20099;-27
2024/01/10 11:56:18;;;;;;;11.15;5.53;;;;;;;;;;5096037;28;20020;-27
2024/01/10 11:59:05;;;;;;;12.48;5.47;;;;;;;;;;5096453;28;20023;-27
2024/01/10 12:01:31;;;;;;;11.13;5.38;;;;;;;;;;5096483;28;20404;-27
2024/01/10 12:03:57;;;;;;;19.92;5.65;;;;;;;;;;5095968;28;20047;-28
2024/01/10 12:06:23;;;;;;;13.07;5.97;;;;;;;;;;5096090;28;20032;-27
2024/01/10 12:08:50;;;;;;;9.02;4.63;;;;;;;;;;5096340;28;20531;-27
2024/01/10 12:11:15;;;;;;;11.10;5.32;;;;;;;;;;5096185;28;20044;-27
2024/01/10 12:13:41;;;;;;;13.02;5.93;;;;;;;;;;5096102;28;20371;-27
2024/01/10 12:16:06;;;;;;;10.35;5.68;;;;;;;;;;5095847;28;20099;-27
2024/01/10 12:18:31;;;;;;;11.40;5.88;;;;;;;;;;5096061;28;20012;-28
2024/01/10 12:20:57;;;;;;;10.98;5.68;;;;;;;;;;5095789;28;20012;-28
2024/01/10 12:23:22;;;;;;;11.43;5.97;;;;;;;;;;5096089;28;20024;-28
2024/01/10 12:25:50;;;;;;;10.70;6.25;;;;;;;;;;5095681;28;20024;-28
2024/01/10 12:28:16;;;;;;;8.50;5.90;;;;;;;;;;5095869;28;20024;-28
2024/01/10 12:30:41;;;;;;;8.88;6.07;;;;;;;;;;5095558;28;20161;-28
2024/01/10 12:33:08;;;;;;;9.53;5.90;;;;;;;;;;5096016;28;20020;-28
2024/01/10 12:35:33;;;;;;;10.30;5.97;;;;;;;;;;5093792;28;20016;-28
2024/01/10 12:37:58;;;;;;;10.27;5.60;;;;;;;;;;5093542;28;20027;-28
2024/01/10 12:40:24;;;;;;;12.30;6.10;;;;;;;;;;5095953;28;20020;-28
2024/01/10 12:42:49;;;;;;;9.85;5.90;;;;;;;;;;5095568;28;20024;-27
2024/01/10 12:45:23;;;;;;;8.57;5.80;;;;;;;;;;5095553;28;20103;-29
2024/01/10 12:47:48;;;;;;;14.25;6.53;;;;;;;;;;5095082;28;20047;-28
2024/01/10 12:50:14;;;;;;;8.37;5.53;;;;;;;;;;5095049;28;20020;-27
2024/01/10 12:52:42;;;;;;;8.80;5.47;;;;;;;;;;5095118;28;20270;-28
2024/01/10 12:55:07;;;;;;;8.30;5.45;;;;;;;;;;5095293;28;20737;-32
2024/01/10 12:57:32;;;;;;;9.65;5.88;;;;;;;;;;5095044;28;20047;-27
2024/01/10 12:59:57;;;;;;;10.03;5.80;;;;;;;;;;5095031;28;20016;-27
2024/01/10 13:02:23;;;;;;;11.37;5.67;;;;;;;;;;5094935;28;20103;-27
2024/01/10 13:04:48;;;;;;;13.37;6.57;;;;;;;;;;5094919;28;20048;-27
2024/01/10 13:07:13;;;;;;;13.70;6.17;;;;;;;;;;5094159;28;20039;-27
2024/01/10 13:09:39;;;;;;;9.17;5.93;;;;;;;;;;5095286;28;20339;-27
2024/01/10 13:12:04;;;;;;;13.15;6.60;;;;;;;;;;5094864;28;20013;-27
2024/01/10 13:14:31;;;;;;;11.30;6.07;;;;;;;;;;5094668;28;20016;-27
2024/01/10 13:16:56;;;;;;;13.35;6.40;;;;;;;;;;5094617;28;20108;-27
2024/01/10 13:19:21;;;;;;;9.52;6.13;;;;;;;;;;5094577;28;20059;-27
2024/01/10 13:21:46;;;;;;;10.57;6.43;;;;;;;;;;5095148;28;20020;-27
2024/01/10 13:24:12;;;;;;;9.50;5.97;;;;;;;;;;5094516;28;20020;-28
2024/01/10 13:26:37;;;;;;;9.55;6.20;;;;;;;;;;5094460;28;20254;-27
2024/01/10 13:29:02;;;;;;;10.52;5.90;;;;;;;;;;5094607;28;20031;-27
2024/01/10 13:31:28;;;;;;;10.50;6.30;;;;;;;;;;5094734;28;20020;-27
2024/01/10 13:33:54;;;;;;;10.45;6.00;;;;;;;;;;5094602;28;20462;-27
2024/01/10 13:36:19;;;;;;;11.27;5.82;;;;;;;;;;5094493;28;20021;-27
2024/01/10 13:38:44;;;;;;;10.33;5.60;;;;;;;;;;5094287;28;20424;-27
2024/01/10 13:41:09;;;;;;;12.38;6.10;;;;;;;;;;5094451;28;20254;-27
2024/01/10 13:43:35;;;;;;;10.82;5.88;;;;;;;;;;5094132;28;20455;-27
2024/01/10 13:46:01;;;;;;;12.77;5.97;;;;;;;;;;5094080;28;20020;-27
2024/01/10 13:48:26;;;;;;;12.65;5.60;;;;;;;;;;5094337;28;20375;-26
2024/01/10 13:50:51;;;;;;;11.00;5.68;;;;;;;;;;5075851;28;20035;-29
2024/01/10 13:53:17;;;;;;;11.48;6.05;;;;;;;;;;5094432;28;20027;-27
2024/01/10 13:55:42;;;;;;;9.85;5.40;;;;;;;;;;5092498;28;20020;-27
2024/01/10 13:58:07;;;;;;;13.93;6.13;;;;;;;;;;5091967;28;20016;-27
2024/01/10 14:00:33;;;;;;;12.07;6.30;;;;;;;;;;5091698;28;20073;-27
2024/01/10 14:03:01;;;;;;;10.30;5.82;;;;;;;;;;5091732;28;20052;-27
2024/01/10 14:05:29;;;;;;;15.00;5.75;;;;;;;;;;5091370;28;20046;-27
2024/01/10 14:07:54;;;;;;;11.77;5.55;;;;;;;;;;5091511;28;20134;-26
2024/01/10 14:10:19;;;;;;;13.07;5.40;;;;;;;;;;5092000;28;20477;-26
2024/01/10 14:12:45;;;;;;;17.73;5.65;;;;;;;;;;5093070;28;20028;-27
2024/01/10 14:15:10;;;;;;;13.77;7.10;;;;;;;;;;5093282;28;20030;-27
2024/01/10 14:17:36;;;;;;;15.77;6.45;;;;;;;;;;5092930;28;20099;-28
2024/01/10 14:20:01;;;;;;;12.63;5.78;;;;;;;;;;5091920;28;20048;-26
2024/01/10 14:22:26;;;;;;;11.67;5.53;;;;;;;;;;5091100;28;20455;-27
2024/01/10 14:24:51;;;;;;;10.70;5.68;;;;;;;;;;5091714;28;20353;-34
2024/01/10 14:27:17;;;;;;;9.95;5.35;;;;;;;;;;5091635;28;20508;-27